sensor_id;sensor_type;location;lat;lon;timestamp;pressure;altitude;pressure_sealevel;temperature;humidity
17260;BME280;8746;49.230;9.220;2023-03-01T00:01:27;100895.09;;;-1.39;78.83
17260;BME280;8746;49.230;9.220;2023-03-01T00:03:54;100890.72;;;-1.41;78.67
17260;BME280;8746;49.230;9.220;2023-03-01T00:06:20;100892.50;;;-1.40;79.05
17260;BME280;8746;49.230;9.220;2023-03-01T00:08:45;100892.50;;;-1.40;79.13
17260;BME280;8746;49.230;9.220;2023-03-01T00:13:44;100900.25;;;-1.40;78.74
17260;BME280;8746;49.230;9.220;2023-03-01T00:16:12;100898.53;;;-1.40;79.61
17260;BME280;8746;49.230;9.220;2023-03-01T00:18:38;100900.19;;;-1.42;79.66
17260;BME280;8746;49.230;9.220;2023-03-01T00:21:04;100900.03;;;-1.50;79.61
17260;BME280;8746;49.230;9.220;2023-03-01T00:23:29;100896.50;;;-1.52;79.85
17260;BME280;8746;49.230;9.220;2023-03-01T00:25:55;100899.19;;;-1.49;80.13
17260;BME280;8746;49.230;9.220;2023-03-01T00:28:21;100894.09;;;-1.46;79.54
17260;BME280;8746;49.230;9.220;2023-03-01T00:30:47;100892.41;;;-1.43;80.30
17260;BME280;8746;49.230;9.220;2023-03-01T00:33:12;100893.22;;;-1.45;79.66
17260;BME280;8746;49.230;9.220;2023-03-01T00:35:38;100891.50;;;-1.46;80.02
17260;BME280;8746;49.230;9.220;2023-03-01T00:38:03;100895.81;;;-1.45;79.71
17260;BME280;8746;49.230;9.220;2023-03-01T00:40:31;100898.31;;;-1.49;79.96
17260;BME280;8746;49.230;9.220;2023-03-01T00:42:57;100901.91;;;-1.42;79.58
17260;BME280;8746;49.230;9.220;2023-03-01T00:45:22;100903.69;;;-1.41;80.03
17260;BME280;8746;49.230;9.220;2023-03-01T00:47:49;100904.47;;;-1.44;80.02
17260;BME280;8746;49.230;9.220;2023-03-01T00:50:14;100908.63;;;-1.51;79.85
17260;BME280;8746;49.230;9.220;2023-03-01T00:52:40;100907.78;;;-1.50;80.03
17260;BME280;8746;49.230;9.220;2023-03-01T00:55:06;100902.63;;;-1.48;80.08
17260;BME280;8746;49.230;9.220;2023-03-01T00:57:32;100918.97;;;-1.51;80.00
17260;BME280;8746;49.230;9.220;2023-03-01T00:59:58;100912.84;;;-1.54;80.13
17260;BME280;8746;49.230;9.220;2023-03-01T01:02:24;100918.81;;;-1.57;80.38
17260;BME280;8746;49.230;9.220;2023-03-01T01:04:50;100910.06;;;-1.62;80.52
17260;BME280;8746;49.230;9.220;2023-03-01T01:07:17;100899.66;;;-1.65;80.48
17260;BME280;8746;49.230;9.220;2023-03-01T01:09:43;100897.09;;;-1.64;80.70
17260;BME280;8746;49.230;9.220;2023-03-01T01:12:08;100889.56;;;-1.54;80.62
17260;BME280;8746;49.230;9.220;2023-03-01T01:14:34;100889.47;;;-1.59;80.50
17260;BME280;8746;49.230;9.220;2023-03-01T01:16:59;100895.59;;;-1.55;80.02
17260;BME280;8746;49.230;9.220;2023-03-01T01:19:25;100887.72;;;-1.60;80.40
17260;BME280;8746;49.230;9.220;2023-03-01T01:21:52;100885.88;;;-1.64;80.33
17260;BME280;8746;49.230;9.220;2023-03-01T01:24:17;100885.00;;;-1.65;80.45
17260;BME280;8746;49.230;9.220;2023-03-01T01:26:43;100880.84;;;-1.58;80.45
17260;BME280;8746;49.230;9.220;2023-03-01T01:29:09;100878.16;;;-1.63;80.39
17260;BME280;8746;49.230;9.220;2023-03-01T01:31:37;100881.56;;;-1.65;80.55
17260;BME280;8746;49.230;9.220;2023-03-01T01:34:05;100872.75;;;-1.72;80.80
17260;BME280;8746;49.230;9.220;2023-03-01T01:36:32;100868.28;;;-1.78;81.13
17260;BME280;8746;49.230;9.220;2023-03-01T01:38:57;100862.13;;;-1.83;81.51
17260;BME280;8746;49.230;9.220;2023-03-01T01:41:24;100851.72;;;-1.86;81.60
17260;BME280;8746;49.230;9.220;2023-03-01T01:46:47;100848.06;;;-1.94;81.88
17260;BME280;8746;49.230;9.220;2023-03-01T01:52:04;100842.50;;;-2.08;82.54
17260;BME280;8746;49.230;9.220;2023-03-01T01:57:10;100838.06;;;-2.14;83.00
17260;BME280;8746;49.230;9.220;2023-03-01T01:59:38;100833.78;;;-2.13;83.06
17260;BME280;8746;49.230;9.220;2023-03-01T02:02:06;100830.13;;;-2.21;83.35
17260;BME280;8746;49.230;9.220;2023-03-01T02:04:32;100840.34;;;-2.26;83.55
17260;BME280;8746;49.230;9.220;2023-03-01T02:07:01;100824.06;;;-2.22;83.49
17260;BME280;8746;49.230;9.220;2023-03-01T02:09:29;100822.31;;;-2.23;83.46
17260;BME280;8746;49.230;9.220;2023-03-01T02:11:55;100825.94;;;-2.16;83.67
17260;BME280;8746;49.230;9.220;2023-03-01T02:14:21;100817.47;;;-2.11;83.97
17260;BME280;8746;49.230;9.220;2023-03-01T02:16:46;100821.13;;;-2.02;84.04
17260;BME280;8746;49.230;9.220;2023-03-01T02:19:41;100822.09;;;-1.97;83.78
17260;BME280;8746;49.230;9.220;2023-03-01T02:22:18;100811.03;;;-1.93;83.39
17260;BME280;8746;49.230;9.220;2023-03-01T02:30:24;100812.44;;;-2.04;83.65
17260;BME280;8746;49.230;9.220;2023-03-01T02:32:52;100814.31;;;-1.99;83.30
17260;BME280;8746;49.230;9.220;2023-03-01T02:35:20;100807.03;;;-2.15;84.02
17260;BME280;8746;49.230;9.220;2023-03-01T02:37:46;100800.69;;;-2.27;83.59
17260;BME280;8746;49.230;9.220;2023-03-01T02:40:17;100799.66;;;-2.33;84.33
17260;BME280;8746;49.230;9.220;2023-03-01T02:42:50;100793.75;;;-2.28;84.40
17260;BME280;8746;49.230;9.220;2023-03-01T02:45:17;100794.50;;;-2.33;84.57
17260;BME280;8746;49.230;9.220;2023-03-01T02:47:42;100792.91;;;-2.28;84.36
17260;BME280;8746;49.230;9.220;2023-03-01T02:50:25;100793.19;;;-2.16;84.30
17260;BME280;8746;49.230;9.220;2023-03-01T02:53:16;100788.78;;;-2.21;84.31
17260;BME280;8746;49.230;9.220;2023-03-01T02:55:42;100782.59;;;-2.27;84.22
17260;BME280;8746;49.230;9.220;2023-03-01T02:58:07;100786.78;;;-2.32;84.05
17260;BME280;8746;49.230;9.220;2023-03-01T03:00:39;100781.16;;;-2.49;85.00
17260;BME280;8746;49.230;9.220;2023-03-01T03:03:09;100781.13;;;-2.50;85.18
17260;BME280;8746;49.230;9.220;2023-03-01T03:05:35;100785.34;;;-2.54;85.16
17260;BME280;8746;49.230;9.220;2023-03-01T03:08:02;100779.41;;;-2.50;85.30
17260;BME280;8746;49.230;9.220;2023-03-01T03:10:30;100778.56;;;-2.49;85.23
17260;BME280;8746;49.230;9.220;2023-03-01T03:13:08;100776.00;;;-2.49;85.13
17260;BME280;8746;49.230;9.220;2023-03-01T03:15:33;100781.97;;;-2.50;85.50
17260;BME280;8746;49.230;9.220;2023-03-01T03:18:05;100778.56;;;-2.49;85.16
17260;BME280;8746;49.230;9.220;2023-03-01T03:20:31;100779.09;;;-2.61;85.60
17260;BME280;8746;49.230;9.220;2023-03-01T03:22:57;100781.66;;;-2.62;86.48
17260;BME280;8746;49.230;9.220;2023-03-01T03:25:24;100768.78;;;-2.61;86.22
17260;BME280;8746;49.230;9.220;2023-03-01T03:27:50;100781.38;;;-2.73;86.42
17260;BME280;8746;49.230;9.220;2023-03-01T03:30:23;100774.13;;;-2.54;85.90
17260;BME280;8746;49.230;9.220;2023-03-01T03:32:49;100777.28;;;-2.65;86.23
17260;BME280;8746;49.230;9.220;2023-03-01T03:35:26;100769.56;;;-2.63;86.18
17260;BME280;8746;49.230;9.220;2023-03-01T03:37:53;100762.69;;;-2.64;86.23
17260;BME280;8746;49.230;9.220;2023-03-01T03:40:37;100767.75;;;-2.67;86.36
17260;BME280;8746;49.230;9.220;2023-03-01T03:43:05;100762.84;;;-2.58;85.93
17260;BME280;8746;49.230;9.220;2023-03-01T03:45:31;100754.06;;;-2.63;86.24
17260;BME280;8746;49.230;9.220;2023-03-01T03:47:59;100753.19;;;-2.65;86.14
17260;BME280;8746;49.230;9.220;2023-03-01T03:50:24;100745.22;;;-2.73;85.96
17260;BME280;8746;49.230;9.220;2023-03-01T03:52:49;100752.22;;;-2.69;86.19
17260;BME280;8746;49.230;9.220;2023-03-01T03:55:15;100750.59;;;-2.65;86.10
17260;BME280;8746;49.230;9.220;2023-03-01T03:57:45;100742.75;;;-2.68;85.72
17260;BME280;8746;49.230;9.220;2023-03-01T04:00:18;100738.41;;;-2.69;85.94
17260;BME280;8746;49.230;9.220;2023-03-01T04:02:44;100742.03;;;-2.64;85.63
17260;BME280;8746;49.230;9.220;2023-03-01T04:05:11;100735.94;;;-2.66;85.89
17260;BME280;8746;49.230;9.220;2023-03-01T04:07:37;100742.06;;;-2.63;85.50
17260;BME280;8746;49.230;9.220;2023-03-01T04:10:09;100739.50;;;-2.61;85.69
17260;BME280;8746;49.230;9.220;2023-03-01T04:12:35;100736.59;;;-2.74;85.90
17260;BME280;8746;49.230;9.220;2023-03-01T04:15:03;100743.34;;;-2.79;85.96
17260;BME280;8746;49.230;9.220;2023-03-01T04:17:38;100742.75;;;-2.68;86.05
17260;BME280;8746;49.230;9.220;2023-03-01T04:20:05;100740.19;;;-2.67;85.96
17260;BME280;8746;49.230;9.220;2023-03-01T04:22:30;100739.44;;;-2.64;85.99
17260;BME280;8746;49.230;9.220;2023-03-01T04:24:57;100738.63;;;-2.62;86.46
17260;BME280;8746;49.230;9.220;2023-03-01T04:27:22;100741.53;;;-2.49;85.86
17260;BME280;8746;49.230;9.220;2023-03-01T04:29:47;100739.63;;;-2.56;85.36
17260;BME280;8746;49.230;9.220;2023-03-01T04:32:13;100731.75;;;-2.61;86.01
17260;BME280;8746;49.230;9.220;2023-03-01T04:34:41;100737.44;;;-2.75;86.00
17260;BME280;8746;49.230;9.220;2023-03-01T04:37:06;100734.81;;;-2.76;85.95
17260;BME280;8746;49.230;9.220;2023-03-01T04:39:31;100742.63;;;-2.73;85.89
17260;BME280;8746;49.230;9.220;2023-03-01T04:41:57;100736.34;;;-2.83;86.42
17260;BME280;8746;49.230;9.220;2023-03-01T04:44:23;100735.78;;;-2.72;86.27
17260;BME280;8746;49.230;9.220;2023-03-01T04:46:49;100743.50;;;-2.72;85.86
17260;BME280;8746;49.230;9.220;2023-03-01T04:49:15;100743.50;;;-2.72;85.71
17260;BME280;8746;49.230;9.220;2023-03-01T04:51:41;100739.16;;;-2.75;85.70
17260;BME280;8746;49.230;9.220;2023-03-01T04:54:06;100736.75;;;-2.67;85.66
17260;BME280;8746;49.230;9.220;2023-03-01T04:56:34;100747.94;;;-2.67;86.07
17260;BME280;8746;49.230;9.220;2023-03-01T04:58:59;100741.59;;;-2.80;86.04
17260;BME280;8746;49.230;9.220;2023-03-01T05:01:25;100747.75;;;-2.75;85.93
17260;BME280;8746;49.230;9.220;2023-03-01T05:03:51;100745.16;;;-2.75;85.81
17260;BME280;8746;49.230;9.220;2023-03-01T05:06:17;100761.59;;;-2.72;85.66
17260;BME280;8746;49.230;9.220;2023-03-01T05:08:44;100759.88;;;-2.72;85.97
17260;BME280;8746;49.230;9.220;2023-03-01T05:11:09;100748.69;;;-2.72;85.35
17260;BME280;8746;49.230;9.220;2023-03-01T05:13:36;100753.19;;;-2.65;85.18
17260;BME280;8746;49.230;9.220;2023-03-01T05:16:02;100741.25;;;-2.60;85.31
17260;BME280;8746;49.230;9.220;2023-03-01T05:18:30;100748.72;;;-2.71;85.41
17260;BME280;8746;49.230;9.220;2023-03-01T05:21:02;100747.72;;;-2.76;85.08
17260;BME280;8746;49.230;9.220;2023-03-01T05:23:29;100744.22;;;-2.78;85.89
17260;BME280;8746;49.230;9.220;2023-03-01T05:25:57;100745.16;;;-2.75;85.49
17260;BME280;8746;49.230;9.220;2023-03-01T05:28:25;100747.75;;;-2.75;85.24
17260;BME280;8746;49.230;9.220;2023-03-01T05:30:51;100741.09;;;-2.66;85.37
17260;BME280;8746;49.230;9.220;2023-03-01T05:33:17;100737.25;;;-2.81;85.51
17260;BME280;8746;49.230;9.220;2023-03-01T05:35:43;100739.84;;;-2.81;85.35
17260;BME280;8746;49.230;9.220;2023-03-01T05:38:10;100732.22;;;-2.76;85.34
17260;BME280;8746;49.230;9.220;2023-03-01T05:40:38;100739.06;;;-2.78;85.34
17260;BME280;8746;49.230;9.220;2023-03-01T05:43:03;100734.84;;;-2.75;85.53
17260;BME280;8746;49.230;9.220;2023-03-01T05:45:30;100741.50;;;-2.83;85.51
17260;BME280;8746;49.230;9.220;2023-03-01T05:47:58;100734.59;;;-2.84;85.32
17260;BME280;8746;49.230;9.220;2023-03-01T05:50:29;100727.03;;;-2.78;85.12
17260;BME280;8746;49.230;9.220;2023-03-01T05:53:00;100726.16;;;-2.77;84.84
17260;BME280;8746;49.230;9.220;2023-03-01T05:55:26;100730.31;;;-2.83;85.34
17260;BME280;8746;49.230;9.220;2023-03-01T05:57:52;100734.00;;;-2.74;85.76
17260;BME280;8746;49.230;9.220;2023-03-01T06:00:19;100733.97;;;-2.75;84.85
17260;BME280;8746;49.230;9.220;2023-03-01T06:02:47;100738.25;;;-2.76;84.60
17260;BME280;8746;49.230;9.220;2023-03-01T06:05:13;100731.59;;;-2.67;84.93
17260;BME280;8746;49.230;9.220;2023-03-01T06:07:39;100743.41;;;-2.76;85.03
17260;BME280;8746;49.230;9.220;2023-03-01T06:10:05;100732.34;;;-2.71;84.41
17260;BME280;8746;49.230;9.220;2023-03-01T06:12:32;100735.78;;;-2.72;84.14
17260;BME280;8746;49.230;9.220;2023-03-01T06:14:59;100734.94;;;-2.71;84.58
17260;BME280;8746;49.230;9.220;2023-03-01T06:17:24;100742.69;;;-2.71;84.35
17260;BME280;8746;49.230;9.220;2023-03-01T06:19:49;100738.47;;;-2.68;83.99
17260;BME280;8746;49.230;9.220;2023-03-01T06:22:15;100742.03;;;-2.64;83.93
17260;BME280;8746;49.230;9.220;2023-03-01T06:24:40;100743.00;;;-2.59;84.07
17260;BME280;8746;49.230;9.220;2023-03-01T06:27:05;100741.13;;;-2.65;84.07
17260;BME280;8746;49.230;9.220;2023-03-01T06:29:31;100737.69;;;-2.65;84.10
17260;BME280;8746;49.230;9.220;2023-03-01T06:31:56;100732.00;;;-2.52;84.13
17260;BME280;8746;49.230;9.220;2023-03-01T06:34:21;100740.59;;;-2.53;83.93
17260;BME280;8746;49.230;9.220;2023-03-01T06:36:47;100732.25;;;-2.41;83.22
17260;BME280;8746;49.230;9.220;2023-03-01T06:39:12;100733.97;;;-2.42;83.95
17260;BME280;8746;49.230;9.220;2023-03-01T06:41:38;100730.47;;;-2.44;82.86
17260;BME280;8746;49.230;9.220;2023-03-01T06:44:03;100727.16;;;-2.39;83.23
17260;BME280;8746;49.230;9.220;2023-03-01T06:46:29;100718.63;;;-2.35;82.99
17260;BME280;8746;49.230;9.220;2023-03-01T06:48:54;100723.72;;;-2.38;83.39
17260;BME280;8746;49.230;9.220;2023-03-01T06:51:19;100715.88;;;-2.42;83.00
17260;BME280;8746;49.230;9.220;2023-03-01T06:53:46;100710.47;;;-2.16;82.61
17260;BME280;8746;49.230;9.220;2023-03-01T06:56:11;100724.25;;;-2.17;82.08
17260;BME280;8746;49.230;9.220;2023-03-01T06:58:37;100724.22;;;-2.18;82.06
17260;BME280;8746;49.230;9.220;2023-03-01T07:01:07;100727.44;;;-2.27;82.44
17260;BME280;8746;49.230;9.220;2023-03-01T07:03:32;100724.47;;;-2.07;82.12
17260;BME280;8746;49.230;9.220;2023-03-01T07:05:58;100723.38;;;-2.17;82.33
17260;BME280;8746;49.230;9.220;2023-03-01T07:08:23;100725.94;;;-2.19;82.57
17260;BME280;8746;49.230;9.220;2023-03-01T07:10:54;100714.00;;;-2.12;82.26
17260;BME280;8746;49.230;9.220;2023-03-01T07:13:20;100709.66;;;-2.15;82.47
17260;BME280;8746;49.230;9.220;2023-03-01T07:15:45;100713.28;;;-2.06;82.68
17260;BME280;8746;49.230;9.220;2023-03-01T07:18:10;100713.41;;;-2.02;81.50
17260;BME280;8746;49.230;9.220;2023-03-01T07:20:36;100707.34;;;-2.02;82.23
17260;BME280;8746;49.230;9.220;2023-03-01T07:23:01;100712.59;;;-1.99;82.74
17260;BME280;8746;49.230;9.220;2023-03-01T07:25:26;100712.06;;;-1.84;82.12
17260;BME280;8746;49.230;9.220;2023-03-01T07:27:52;100706.91;;;-1.84;81.27
17260;BME280;8746;49.230;9.220;2023-03-01T07:30:19;100708.69;;;-1.82;81.21
17260;BME280;8746;49.230;9.220;2023-03-01T07:32:45;100704.69;;;-1.67;80.58
17260;BME280;8746;49.230;9.220;2023-03-01T07:35:11;100707.19;;;-1.72;80.36
17260;BME280;8746;49.230;9.220;2023-03-01T07:37:36;100703.16;;;-1.59;79.98
17260;BME280;8746;49.230;9.220;2023-03-01T07:40:02;100691.22;;;-1.51;79.21
17260;BME280;8746;49.230;9.220;2023-03-01T07:42:27;100689.88;;;-1.33;78.92
17260;BME280;8746;49.230;9.220;2023-03-01T07:44:53;100681.53;;;-1.20;79.04
17260;BME280;8746;49.230;9.220;2023-03-01T07:47:18;100681.81;;;-1.04;78.40
17260;BME280;8746;49.230;9.220;2023-03-01T07:49:43;100680.09;;;-1.04;78.02
17260;BME280;8746;49.230;9.220;2023-03-01T07:52:12;100681.69;;;-1.10;77.43
17260;BME280;8746;49.230;9.220;2023-03-01T07:54:38;100681.69;;;-1.10;77.72
17260;BME280;8746;49.230;9.220;2023-03-01T07:57:03;100680.13;;;-1.02;77.70
17260;BME280;8746;49.230;9.220;2023-03-01T07:59:29;100680.19;;;-0.99;76.50
17260;BME280;8746;49.230;9.220;2023-03-01T08:01:56;100675.13;;;-0.93;76.02
17260;BME280;8746;49.230;9.220;2023-03-01T08:04:22;100681.28;;;-0.85;75.32
17260;BME280;8746;49.230;9.220;2023-03-01T08:06:50;100680.66;;;-0.73;75.17
17260;BME280;8746;49.230;9.220;2023-03-01T08:09:15;100676.50;;;-0.63;74.22
17260;BME280;8746;49.230;9.220;2023-03-01T08:11:40;100677.31;;;-0.67;74.38
17260;BME280;8746;49.230;9.220;2023-03-01T08:14:06;100674.13;;;-0.51;74.09
17260;BME280;8746;49.230;9.220;2023-03-01T08:16:31;100667.00;;;-0.62;73.55
17260;BME280;8746;49.230;9.220;2023-03-01T08:19:03;100664.56;;;-0.55;73.87
17260;BME280;8746;49.230;9.220;2023-03-01T08:21:29;100676.03;;;-0.40;73.67
17260;BME280;8746;49.230;9.220;2023-03-01T08:23:54;100679.50;;;-0.38;72.97
17260;BME280;8746;49.230;9.220;2023-03-01T08:26:20;100670.78;;;-0.45;72.64
17260;BME280;8746;49.230;9.220;2023-03-01T08:28:48;100659.84;;;-0.25;73.11
17260;BME280;8746;49.230;9.220;2023-03-01T08:33:43;100653.00;;;-0.22;72.31
17260;BME280;8746;49.230;9.220;2023-03-01T08:36:08;100647.81;;;-0.20;71.52
17260;BME280;8746;49.230;9.220;2023-03-01T08:38:34;100654.00;;;-0.10;71.65
17260;BME280;8746;49.230;9.220;2023-03-01T08:41:01;100652.50;;;0.06;71.41
17260;BME280;8746;49.230;9.220;2023-03-01T08:43:27;100656.00;;;0.06;71.17
17260;BME280;8746;49.230;9.220;2023-03-01T08:45:52;100655.19;;;0.13;70.55
17260;BME280;8746;49.230;9.220;2023-03-01T08:48:17;100655.06;;;0.03;70.83
17260;BME280;8746;49.230;9.220;2023-03-01T08:50:43;100647.34;;;0.07;70.08
17260;BME280;8746;49.230;9.220;2023-03-01T08:53:08;100648.53;;;0.29;70.17
17260;BME280;8746;49.230;9.220;2023-03-01T08:55:33;100651.72;;;0.10;70.26
17260;BME280;8746;49.230;9.220;2023-03-01T08:57:59;100638.06;;;0.25;70.30
17260;BME280;8746;49.230;9.220;2023-03-01T09:00:24;100641.59;;;0.30;69.83
17260;BME280;8746;49.230;9.220;2023-03-01T09:02:50;100640.22;;;0.60;69.63
17260;BME280;8746;49.230;9.220;2023-03-01T09:05:15;100633.34;;;0.63;69.10
17260;BME280;8746;49.230;9.220;2023-03-01T09:07:40;100633.31;;;0.60;69.01
17260;BME280;8746;49.230;9.220;2023-03-01T09:10:06;100640.28;;;0.64;68.59
17260;BME280;8746;49.230;9.220;2023-03-01T09:12:32;100650.53;;;0.54;68.06
17260;BME280;8746;49.230;9.220;2023-03-01T09:14:57;100631.63;;;0.66;69.31
17260;BME280;8746;49.230;9.220;2023-03-01T09:17:22;100642.00;;;0.62;68.16
17260;BME280;8746;49.230;9.220;2023-03-01T09:19:48;100638.72;;;0.79;67.74
17260;BME280;8746;49.230;9.220;2023-03-01T09:22:13;100637.09;;;0.90;68.59
17260;BME280;8746;49.230;9.220;2023-03-01T09:24:39;100631.94;;;0.93;68.09
17260;BME280;8746;49.230;9.220;2023-03-01T09:27:06;100629.41;;;0.98;67.70
17260;BME280;8746;49.230;9.220;2023-03-01T09:29:35;100624.31;;;1.10;66.74
17260;BME280;8746;49.230;9.220;2023-03-01T09:32:00;100613.09;;;1.16;67.32
17260;BME280;8746;49.230;9.220;2023-03-01T09:34:26;100607.97;;;1.25;66.64
17260;BME280;8746;49.230;9.220;2023-03-01T09:36:52;100603.72;;;1.34;66.54
17260;BME280;8746;49.230;9.220;2023-03-01T09:39:17;100602.16;;;1.54;66.30
17260;BME280;8746;49.230;9.220;2023-03-01T09:41:50;100594.31;;;1.51;65.96
17260;BME280;8746;49.230;9.220;2023-03-01T09:47:04;100591.75;;;1.56;65.48
17260;BME280;8746;49.230;9.220;2023-03-01T09:49:31;100593.63;;;1.79;65.13
17260;BME280;8746;49.230;9.220;2023-03-01T09:54:54;100578.25;;;2.25;64.54
17260;BME280;8746;49.230;9.220;2023-03-01T09:57:35;100580.88;;;2.28;64.46
17260;BME280;8746;49.230;9.220;2023-03-01T10:05:25;100560.22;;;2.90;61.73
17260;BME280;8746;49.230;9.220;2023-03-01T10:10:38;100565.44;;;3.23;61.35
17260;BME280;8746;49.230;9.220;2023-03-01T10:13:45;100561.06;;;3.59;61.53
17260;BME280;8746;49.230;9.220;2023-03-01T10:16:21;100552.38;;;3.40;60.23
17260;BME280;8746;49.230;9.220;2023-03-01T10:18:54;100540.84;;;4.20;59.03
17260;BME280;8746;49.230;9.220;2023-03-01T10:21:20;100541.78;;;4.08;58.54
17260;BME280;8746;49.230;9.220;2023-03-01T10:23:46;100540.00;;;4.10;58.70
17260;BME280;8746;49.230;9.220;2023-03-01T10:31:25;100528.34;;;4.76;56.94
17260;BME280;8746;49.230;9.220;2023-03-01T10:33:53;100526.88;;;4.31;56.32
17260;BME280;8746;49.230;9.220;2023-03-01T10:36:21;100517.97;;;4.65;57.00
17260;BME280;8746;49.230;9.220;2023-03-01T10:38:54;100509.22;;;4.71;56.31
17260;BME280;8746;49.230;9.220;2023-03-01T10:41:22;100510.25;;;4.45;56.88
17260;BME280;8746;49.230;9.220;2023-03-01T10:43:51;100513.25;;;5.15;56.86
17260;BME280;8746;49.230;9.220;2023-03-01T10:46:36;100518.69;;;4.87;55.36
17260;BME280;8746;49.230;9.220;2023-03-01T10:49:21;100504.34;;;5.33;55.93
17260;BME280;8746;49.230;9.220;2023-03-01T10:51:48;100496.78;;;5.05;55.29
17260;BME280;8746;49.230;9.220;2023-03-01T10:54:25;100491.56;;;5.02;55.77
17260;BME280;8746;49.230;9.220;2023-03-01T10:56:54;100494.00;;;5.21;56.61
17260;BME280;8746;49.230;9.220;2023-03-01T10:59:36;100488.34;;;5.62;55.52
17260;BME280;8746;49.230;9.220;2023-03-01T11:04:27;100479.97;;;5.28;54.49
17260;BME280;8746;49.230;9.220;2023-03-01T11:06:59;100476.53;;;5.24;55.96
17260;BME280;8746;49.230;9.220;2023-03-01T11:09:24;100469.81;;;5.80;54.94
17260;BME280;8746;49.230;9.220;2023-03-01T11:11:57;100477.41;;;5.23;54.99
17260;BME280;8746;49.230;9.220;2023-03-01T11:14:25;100461.16;;;5.74;54.70
17260;BME280;8746;49.230;9.220;2023-03-01T11:17:15;100460.44;;;5.61;54.99
17260;BME280;8746;49.230;9.220;2023-03-01T11:19:42;100459.84;;;6.11;53.95
17260;BME280;8746;49.230;9.220;2023-03-01T11:22:14;100456.31;;;5.39;54.74
17260;BME280;8746;49.230;9.220;2023-03-01T11:24:46;100458.72;;;5.57;53.99
17260;BME280;8746;49.230;9.220;2023-03-01T11:27:32;100455.63;;;5.23;54.80
17260;BME280;8746;49.230;9.220;2023-03-01T11:32:50;100440.66;;;5.36;55.55
17260;BME280;8746;49.230;9.220;2023-03-01T11:35:27;100447.88;;;5.88;55.39
17260;BME280;8746;49.230;9.220;2023-03-01T11:40:29;100441.47;;;5.41;55.05
17260;BME280;8746;49.230;9.220;2023-03-01T11:45:28;100437.38;;;5.13;56.33
17260;BME280;8746;49.230;9.220;2023-03-01T11:48:07;100432.22;;;5.07;55.46
17260;BME280;8746;49.230;9.220;2023-03-01T11:50:47;100435.88;;;4.89;55.89
17260;BME280;8746;49.230;9.220;2023-03-01T11:53:20;100418.56;;;4.74;57.11
17260;BME280;8746;49.230;9.220;2023-03-01T11:56:03;100414.22;;;4.75;57.43
17260;BME280;8746;49.230;9.220;2023-03-01T12:01:56;100406.03;;;5.12;56.00
17260;BME280;8746;49.230;9.220;2023-03-01T12:06:50;100396.38;;;5.17;55.17
17260;BME280;8746;49.230;9.220;2023-03-01T12:23:40;100368.41;;;5.24;55.09
17260;BME280;8746;49.230;9.220;2023-03-01T12:26:17;100364.78;;;5.36;54.96
17260;BME280;8746;49.230;9.220;2023-03-01T12:34:46;100351.78;;;5.31;55.87
17260;BME280;8746;49.230;9.220;2023-03-01T12:37:25;100334.13;;;5.47;55.93
17260;BME280;8746;49.230;9.220;2023-03-01T12:43:03;100335.31;;;5.20;55.43
17260;BME280;8746;49.230;9.220;2023-03-01T12:51:20;100323.13;;;5.20;56.11
17260;BME280;8746;49.230;9.220;2023-03-01T12:53:51;100321.41;;;5.16;55.81
17260;BME280;8746;49.230;9.220;2023-03-01T12:56:22;100310.75;;;5.32;54.94
17260;BME280;8746;49.230;9.220;2023-03-01T12:59:02;100314.19;;;5.37;55.35
17260;BME280;8746;49.230;9.220;2023-03-01T13:02:41;100322.13;;;5.29;55.64
17260;BME280;8746;49.230;9.220;2023-03-01T13:07:23;100308.13;;;5.33;55.46
17260;BME280;8746;49.230;9.220;2023-03-01T13:10:06;100302.19;;;5.19;55.46
17260;BME280;8746;49.230;9.220;2023-03-01T13:23:07;100288.19;;;5.24;54.61
17260;BME280;8746;49.230;9.220;2023-03-01T13:28:44;100277.59;;;5.34;56.08
17260;BME280;8746;49.230;9.220;2023-03-01T13:33:46;100286.94;;;5.53;53.91
17260;BME280;8746;49.230;9.220;2023-03-01T13:39:01;100284.53;;;5.38;54.89
17260;BME280;8746;49.230;9.220;2023-03-01T13:46:53;100280.56;;;5.70;53.80
17260;BME280;8746;49.230;9.220;2023-03-01T13:49:27;100286.69;;;5.69;52.81
17260;BME280;8746;49.230;9.220;2023-03-01T13:51:54;100271.00;;;5.70;53.68
17260;BME280;8746;49.230;9.220;2023-03-01T13:54:27;100270.78;;;5.84;54.27
17260;BME280;8746;49.230;9.220;2023-03-01T13:56:55;100262.97;;;5.81;54.10
17260;BME280;8746;49.230;9.220;2023-03-01T13:59:22;100268.25;;;5.78;52.80
17260;BME280;8746;49.230;9.220;2023-03-01T14:01:54;100266.53;;;5.75;52.77
17260;BME280;8746;49.230;9.220;2023-03-01T14:04:26;100246.47;;;5.74;54.14
17260;BME280;8746;49.230;9.220;2023-03-01T14:07:26;100253.16;;;5.94;53.83
17260;BME280;8746;49.230;9.220;2023-03-01T14:10:05;100256.66;;;5.94;53.26
17260;BME280;8746;49.230;9.220;2023-03-01T14:12:55;100264.88;;;5.70;53.97
17260;BME280;8746;49.230;9.220;2023-03-01T14:15:29;100265.81;;;5.66;53.16
17260;BME280;8746;49.230;9.220;2023-03-01T14:18:20;100257.66;;;5.86;53.53
17260;BME280;8746;49.230;9.220;2023-03-01T14:20:51;100252.66;;;5.70;52.93
17260;BME280;8746;49.230;9.220;2023-03-01T14:23:20;100262.13;;;5.79;53.65
17260;BME280;8746;49.230;9.220;2023-03-01T14:25:51;100252.44;;;5.84;53.56
17260;BME280;8746;49.230;9.220;2023-03-01T14:28:21;100251.47;;;5.91;52.97
17260;BME280;8746;49.230;9.220;2023-03-01T14:30:52;100253.06;;;6.03;54.08
17260;BME280;8746;49.230;9.220;2023-03-01T14:36:09;100254.03;;;5.94;52.23
17260;BME280;8746;49.230;9.220;2023-03-01T14:41:10;100249.78;;;5.87;53.08
17260;BME280;8746;49.230;9.220;2023-03-01T14:43:41;100248.06;;;5.85;53.49
17260;BME280;8746;49.230;9.220;2023-03-01T14:46:26;100247.91;;;5.94;53.44
17260;BME280;8746;49.230;9.220;2023-03-01T14:49:19;100264.44;;;5.98;52.61
17260;BME280;8746;49.230;9.220;2023-03-01T14:54:41;100259.28;;;5.94;52.54
17260;BME280;8746;49.230;9.220;2023-03-01T14:57:15;100267.06;;;5.98;52.77
17260;BME280;8746;49.230;9.220;2023-03-01T14:59:42;100267.94;;;5.97;53.06
17260;BME280;8746;49.230;9.220;2023-03-01T15:02:13;100271.34;;;6.05;52.26
17260;BME280;8746;49.230;9.220;2023-03-01T15:04:43;100266.97;;;6.07;52.35
17260;BME280;8746;49.230;9.220;2023-03-01T15:07:12;100266.88;;;6.12;52.41
17260;BME280;8746;49.230;9.220;2023-03-01T15:09:39;100271.25;;;6.11;52.61
17260;BME280;8746;49.230;9.220;2023-03-01T15:14:53;100266.06;;;6.08;51.88